Time;durP1;ratioP1;P1;durP2;ratioP2;P2;SDS_P1;SDS_P2;PMS_P1;PMS_P2;Temp;Humidity;BMP_temperature;BMP_pressure;BME280_temperature;BME280_humidity;BME280_pressure;Samples;Min_cycle;Max_cycle;Signal;HPM_P1;HPM_P2
2023/04/16 00:00:22;;;;;;;83.75;20.25;;;;;;;;;;4867985;29;20076;-70
2023/04/16 00:02:48;;;;;;;78.57;20.48;;;;;;;;;;4898770;29;20063;-70
2023/04/16 00:05:14;;;;;;;77.30;19.95;;;;;;;;;;4882569;29;20048;-69
2023/04/16 00:07:40;;;;;;;75.38;19.27;;;;;;;;;;4882017;29;20051;-69
2023/04/16 00:10:07;;;;;;;76.07;20.70;;;;;;;;;;4866795;29;20044;-69
2023/04/16 00:12:33;;;;;;;64.88;20.55;;;;;;;;;;4898867;29;20036;-69
2023/04/16 00:14:59;;;;;;;74.80;19.77;;;;;;;;;;4882752;29;20036;-69
2023/04/16 00:17:25;;;;;;;67.47;18.65;;;;;;;;;;4887701;29;20549;-71
2023/04/16 00:19:51;;;;;;;60.70;18.67;;;;;;;;;;4898308;29;20036;-71
2023/04/16 00:22:17;;;;;;;64.07;19.33;;;;;;;;;;4886941;29;20036;-71
2023/04/16 00:24:44;;;;;;;62.20;19.42;;;;;;;;;;4893731;29;20127;-70
2023/04/16 00:27:10;;;;;;;61.83;17.90;;;;;;;;;;4897501;29;20451;-70
2023/04/16 00:29:36;;;;;;;55.40;18.63;;;;;;;;;;4881766;29;20044;-70
2023/04/16 00:32:02;;;;;;;73.90;18.10;;;;;;;;;;4866521;29;20058;-70
2023/04/16 00:34:28;;;;;;;64.53;18.00;;;;;;;;;;4896895;29;20048;-70
2023/04/16 00:36:54;;;;;;;67.60;18.13;;;;;;;;;;4898700;29;20127;-71
2023/04/16 00:39:20;;;;;;;57.38;17.75;;;;;;;;;;4889916;29;20157;-71
2023/04/16 00:41:48;;;;;;;49.13;17.92;;;;;;;;;;4888188;29;20047;-71
2023/04/16 00:44:14;;;;;;;50.38;17.23;;;;;;;;;;4897046;29;20048;-71
2023/04/16 00:46:40;;;;;;;50.65;17.40;;;;;;;;;;4889680;29;20048;-70
2023/04/16 00:49:07;;;;;;;60.53;19.73;;;;;;;;;;4881589;29;20068;-70
2023/04/16 00:51:34;;;;;;;47.90;18.20;;;8.50;99.90;;;;;;4898374;29;20044;-70
2023/04/16 00:54:01;;;;;;;52.05;16.98;;;;;;;;;;4888026;29;20045;-68
2023/04/16 00:56:27;;;;;;;58.35;18.05;;;;;;;;;;4883649;29;20037;-68
2023/04/16 00:58:57;;;;;;;53.25;17.08;;;;;;;;;;4898599;29;20063;-68
2023/04/16 01:01:23;;;;;;;50.15;17.92;;;;;;;;;;4915266;29;20064;-69
2023/04/16 01:03:50;;;;;;;65.50;20.65;;;;;;;;;;4884768;29;20091;-69
2023/04/16 01:06:17;;;;;;;60.05;20.23;;;8.40;99.90;;;;;;4880330;29;20071;-70
2023/04/16 01:08:43;;;;;;;60.42;20.15;;;8.50;99.90;;;;;;4881429;29;20044;-71
2023/04/16 01:11:10;;;;;;;65.07;21.80;;;8.50;99.90;;;;;;4881581;29;20087;-70
2023/04/16 01:13:39;;;;;;;65.60;21.75;;;;;;;;;;4889589;29;20109;-70
2023/04/16 01:16:10;;;;;;;56.72;19.73;;;8.30;99.90;;;;;;4881267;29;20388;-69
2023/04/16 01:18:36;;;;;;;63.72;20.30;;;;;;;;;;4912420;29;20044;-69
2023/04/16 01:21:02;;;;;;;66.78;22.30;;;;;;;;;;4915012;29;20071;-70
2023/04/16 01:23:28;;;;;;;75.03;21.20;;;;;;;;;;4894271;29;20048;-68
2023/04/16 01:25:55;;;;;;;64.90;21.90;;;;;;;;;;4897269;29;20409;-68
2023/04/16 01:28:21;;;;;;;72.35;23.27;;;;;;;;;;4898188;29;20040;-70
2023/04/16 01:30:47;;;;;;;70.75;23.05;;;;;;;;;;4897721;29;20067;-70
2023/04/16 01:33:14;;;;;;;83.78;26.08;;;;;;;;;;4896292;29;20496;-70
2023/04/16 01:35:40;;;;;;;77.10;23.88;;;8.30;99.90;;;;;;4882811;29;20127;-68
2023/04/16 01:38:07;;;;;;;86.60;25.20;;;;;;;;;;4882308;29;20040;-69
2023/04/16 01:40:37;;;;;;;71.45;23.45;;;;;;;;;;4881783;29;20055;-70
2023/04/16 01:43:03;;;;;;;75.53;22.98;;;;;;;;;;4881843;29;20040;-70
2023/04/16 01:45:34;;;;;;;76.20;24.02;;;8.60;99.90;;;;;;4881025;29;20056;-70
2023/04/16 01:48:01;;;;;;;76.07;23.33;;;;;;;;;;4880967;29;20048;-71
2023/04/16 01:50:27;;;;;;;74.57;22.52;;;;;;;;;;4866102;29;20355;-70
2023/04/16 01:52:53;;;;;;;78.97;22.98;;;;;;;;;;4866166;29;20131;-70
2023/04/16 01:55:19;;;;;;;81.15;23.67;;;;;;;;;;4869232;29;20036;-71
2023/04/16 01:57:45;;;;;;;74.85;23.67;;;;;;;;;;4887661;29;20040;-71
2023/04/16 02:00:11;;;;;;;87.40;23.13;;;;;;;;;;4883264;29;20170;-71
2023/04/16 02:02:37;;;;;;;107.30;24.08;;;;;;;;;;4897027;29;20044;-71
2023/04/16 02:05:04;;;;;;;78.55;22.30;;;;;;;;;;4893454;29;20136;-71
2023/04/16 02:07:30;;;;;;;86.60;23.85;;;;;;;;;;4893176;29;20139;-70
2023/04/16 02:09:57;;;;;;;78.72;23.70;;;;;;;;;;4885253;29;20501;-71
2023/04/16 02:12:23;;;;;;;71.32;23.25;;;;;;;;;;4901041;29;20083;-70
2023/04/16 02:14:49;;;;;;;80.32;23.77;;;;;;;;;;4890736;29;20128;-71
2023/04/16 02:17:16;;;;;;;89.25;23.52;;;;;;;;;;4868669;29;20092;-70
2023/04/16 02:19:42;;;;;;;78.72;23.75;;;;;;;;;;4891468;29;20084;-71
2023/04/16 02:22:08;;;;;;;83.60;23.95;;;;;;;;;;4917858;29;20099;-71
2023/04/16 02:24:34;;;;;;;103.20;24.30;;;;;;;;;;4888924;29;20512;-70
2023/04/16 02:27:00;;;;;;;78.30;23.40;;;;;;;;;;4900053;29;20393;-71
2023/04/16 02:29:26;;;;;;;83.72;24.45;;;;;;;;;;4891486;29;20051;-71
2023/04/16 02:31:52;;;;;;;82.75;25.10;;;;;;;;;;4908074;29;20449;-70
2023/04/16 02:34:18;;;;;;;89.95;24.73;;;;;;;;;;4907694;29;20036;-70
2023/04/16 02:36:44;;;;;;;89.15;24.83;;;;;;;;;;4900099;29;20107;-70
2023/04/16 02:39:10;;;;;;;92.32;24.70;;;;;;;;;;4892876;29;20041;-71
2023/04/16 02:41:37;;;;;;;94.88;25.98;;;;;;;;;;4885779;29;20047;-71
2023/04/16 02:44:03;;;;;;;78.57;23.75;;;;;;;;;;4900147;29;20059;-70
2023/04/16 02:46:29;;;;;;;95.72;25.67;;;;;;;;;;4868627;29;20378;-71
2023/04/16 02:48:55;;;;;;;87.38;26.75;;;;;;;;;;4883548;29;20044;-71
2023/04/16 02:51:21;;;;;;;89.88;24.40;;;;;;;;;;4883749;29;20485;-70
2023/04/16 02:53:47;;;;;;;90.13;26.52;;;;;;;;;;4883372;29;20505;-70
2023/04/16 02:56:13;;;;;;;99.90;25.63;;;;;;;;;;4881163;29;20043;-71
2023/04/16 02:58:40;;;;;;;89.05;25.42;;;;;;;;;;4877876;29;20044;-71
2023/04/16 03:01:06;;;;;;;104.05;27.00;;;;;;;;;;4897825;29;20060;-71
2023/04/16 03:03:32;;;;;;;102.30;27.00;;;;;;;;;;4882639;29;20131;-70
2023/04/16 03:05:58;;;;;;;105.43;26.10;;;;;;;;;;4894751;29;20052;-70
2023/04/16 03:08:24;;;;;;;96.28;27.27;;;;;;;;;;4915998;29;20087;-71
2023/04/16 03:10:50;;;;;;;100.78;28.30;;;;;;;;;;4899939;29;20047;-71
2023/04/16 03:13:16;;;;;;;90.28;27.85;;;;;;;;;;4896098;29;20048;-71
2023/04/16 03:15:47;;;;;;;105.50;28.73;;;;;;;;;;4883155;29;20047;-71
2023/04/16 03:18:13;;;;;;;108.03;28.48;;;;;;;;;;4900391;29;20362;-71
2023/04/16 03:20:39;;;;;;;102.55;27.90;;;;;;;;;;4887194;29;20155;-71
2023/04/16 03:23:05;;;;;;;89.18;29.48;;;;;;;;;;4867436;29;20049;-71
2023/04/16 03:25:31;;;;;;;97.30;29.65;;;;;;;;;;4883484;29;20112;-71
2023/04/16 03:27:58;;;;;;;89.72;28.92;;;;;;;;;;4896314;29;20044;-71
2023/04/16 03:30:24;;;;;;;97.85;29.15;;;;;;;;;;4889455;29;20580;-71
2023/04/16 03:32:50;;;;;;;102.60;31.77;;;;;;;;;;4899608;29;20048;-71
2023/04/16 03:35:17;;;;;;;95.72;28.38;;;;;;;;;;4896640;29;20530;-70
2023/04/16 03:37:43;;;;;;;101.90;29.33;;;;;;;;;;4880078;29;20123;-70
2023/04/16 03:40:10;;;;;;;91.97;29.10;;;;;;;;;;4883542;29;20564;-71
2023/04/16 03:42:36;;;;;;;93.00;28.38;;;;;;;;;;4899511;29;20040;-71
2023/04/16 03:45:02;;;;;;;88.25;28.20;;;;;;;;;;4898496;29;20040;-71
2023/04/16 03:47:28;;;;;;;96.38;27.92;;;;;;;;;;4899511;29;20064;-71
2023/04/16 03:49:54;;;;;;;110.20;30.50;;;7.70;99.90;;;;;;4889588;29;20524;-71
2023/04/16 03:52:20;;;;;;;95.82;27.05;;;;;;;;;;4882671;29;20199;-71
2023/04/16 03:54:46;;;;;;;93.88;28.10;;;;;;;;;;4889324;29;20051;-71
2023/04/16 03:57:12;;;;;;;102.25;27.58;;;;;;;;;;4895003;29;20053;-71
2023/04/16 03:59:38;;;;;;;92.47;27.70;;;;;;;;;;4878959;29;20450;-70
2023/04/16 04:02:04;;;;;;;108.60;28.92;;;;;;;;;;4882077;29;20053;-71
2023/04/16 04:04:31;;;;;;;113.47;27.30;;;;;;;;;;4883390;29;20103;-71
2023/04/16 04:06:57;;;;;;;120.40;28.73;;;;;;;;;;4893730;29;20052;-71
2023/04/16 04:09:23;;;;;;;104.15;26.80;;;;;;;;;;4891039;29;20052;-70
2023/04/16 04:11:49;;;;;;;111.68;28.70;;;;;;;;;;4882255;29;20047;-71
2023/04/16 04:14:15;;;;;;;101.55;24.75;;;;;;;;;;4882988;29;20115;-71
2023/04/16 04:16:41;;;;;;;96.30;25.90;;;;;;;;;;4882154;29;20179;-71
2023/04/16 04:19:07;;;;;;;98.45;27.02;;;;;;;;;;4888957;29;20052;-69
2023/04/16 04:21:34;;;;;;;86.60;24.75;;;;;;;;;;4864069;29;20092;-69
2023/04/16 04:24:00;;;;;;;111.88;28.00;;;;;;;;;;4910433;29;20104;-71
2023/04/16 04:26:26;;;;;;;93.93;27.45;;;;;;;;;;4898709;29;20054;-70
2023/04/16 04:28:52;;;;;;;104.60;25.95;;;;;;;;;;4904345;29;20044;-71
2023/04/16 04:31:18;;;;;;;109.22;27.65;;;;;;;;;;4884964;29;20156;-69
2023/04/16 04:33:44;;;;;;;92.80;25.75;;;;;;;;;;4897260;29;20048;-69
2023/04/16 04:36:10;;;;;;;88.10;28.33;;;;;;;;;;4898448;29;20047;-69
2023/04/16 04:38:36;;;;;;;94.10;26.50;;;;;;;;;;4882323;29;20052;-69
2023/04/16 04:41:02;;;;;;;102.47;25.58;;;;;;;;;;4881890;29;20464;-69
2023/04/16 04:43:28;;;;;;;97.30;27.25;;;;;;;;;;4881475;29;20096;-69
2023/04/16 04:45:54;;;;;;;92.70;26.10;;;;;;;;;;4895255;29;20477;-69
2023/04/16 04:48:25;;;;;;;93.00;24.30;;;;;;;;;;4882361;29;20090;-69
2023/04/16 04:50:52;;;;;;;84.43;24.35;;;;;;;;;;4897158;29;20564;-70
2023/04/16 04:53:18;;;;;;;74.65;23.70;;;;;;;;;;4864746;29;20053;-70
2023/04/16 04:55:44;;;;;;;90.43;25.38;;;;;;;;;;4882344;29;20036;-70
2023/04/16 04:58:11;;;;;;;88.38;23.17;;;;;;;;;;4895213;29;20044;-70
2023/04/16 05:00:37;;;;;;;88.90;22.30;;;;;;;;;;4883459;29;20049;-70
2023/04/16 05:03:08;;;;;;;87.20;22.05;;;8.50;99.90;;;;;;4893956;29;20060;-70
2023/04/16 05:05:34;;;;;;;102.38;21.80;;;;;;;;;;4897202;29;20067;-71
2023/04/16 05:08:00;;;;;;;96.50;21.98;;;;;;;;;;4891865;29;20481;-71
2023/04/16 05:10:27;;;;;;;107.15;22.65;;;;;;;;;;4881644;29;20064;-71
2023/04/16 05:12:53;;;;;;;81.72;21.48;;;;;;;;;;4881075;29;20048;-70
2023/04/16 05:15:19;;;;;;;108.82;21.85;;;;;;;;;;4881309;29;20048;-70
2023/04/16 05:17:45;;;;;;;87.32;22.00;;;;;;;;;;4868794;29;20523;-70
2023/04/16 05:20:11;;;;;;;77.07;22.08;;;;;;;;;;4892490;29;20075;-70
2023/04/16 05:22:37;;;;;;;81.00;21.20;;;;;;;;;;4886105;29;20051;-70
2023/04/16 05:25:03;;;;;;;83.32;21.35;;;9.00;99.90;;;;;;4897839;29;20040;-70
2023/04/16 05:27:29;;;;;;;98.35;21.30;;;;;;;;;;4898271;29;20052;-70
2023/04/16 05:29:56;;;;;;;80.03;20.02;;;;;;;;;;4897779;29;20054;-69
2023/04/16 05:32:22;;;;;;;71.43;20.10;;;;;;;;;;4890810;29;20092;-69
2023/04/16 05:34:48;;;;;;;72.15;19.73;;;;;;;;;;4879778;29;20120;-69
2023/04/16 05:37:14;;;;;;;80.72;22.50;;;;;;;;;;4883716;29;20036;-71
2023/04/16 05:39:40;;;;;;;96.78;23.58;;;;;;;;;;4882582;29;20447;-69
2023/04/16 05:42:06;;;;;;;96.53;24.95;;;;;;;;;;4899704;29;20445;-70
2023/04/16 05:44:32;;;;;;;89.93;25.17;;;8.50;99.90;;;;;;4884843;29;20042;-70
2023/04/16 05:46:59;;;;;;;93.97;24.95;;;;;;;;;;4885632;29;20113;-69
2023/04/16 05:49:25;;;;;;;83.80;22.17;;;;;;;;;;4884865;29;20048;-69
2023/04/16 05:51:51;;;;;;;97.20;25.42;;;;;;;;;;4884986;29;20080;-69
2023/04/16 05:54:17;;;;;;;99.80;25.27;;;;;;;;;;4902347;29;20051;-69
2023/04/16 05:56:43;;;;;;;82.50;22.55;;;;;;;;;;4866587;29;20127;-69
2023/04/16 05:59:09;;;;;;;91.53;22.23;;;;;;;;;;4884462;29;20508;-69
2023/04/16 06:01:35;;;;;;;84.28;21.38;;;;;;;;;;4892584;29;20041;-69
2023/04/16 06:04:01;;;;;;;95.93;22.75;;;;;;;;;;4902105;29;20044;-69
2023/04/16 06:06:27;;;;;;;79.53;21.15;;;;;;;;;;4884283;29;20047;-70
2023/04/16 06:08:53;;;;;;;82.40;20.70;;;;;;;;;;4884520;29;20084;-69
2023/04/16 06:11:19;;;;;;;73.05;20.63;;;;;;;;;;4893087;29;20051;-73
2023/04/16 06:13:45;;;;;;;84.00;21.85;;;;;;;;;;4890021;29;20044;-74
2023/04/16 06:16:12;;;;;;;79.00;22.08;;;;;;;;;;4884700;29;20119;-68
2023/04/16 06:18:38;;;;;;;88.40;22.25;;;;;;;;;;4900894;29;20047;-70
2023/04/16 06:21:04;;;;;;;83.18;22.85;;;;;;;;;;4900824;29;20047;-68
2023/04/16 06:23:30;;;;;;;73.35;20.90;;;;;;;;;;4900613;29;20119;-69
2023/04/16 06:25:56;;;;;;;86.82;20.98;;;;;;;;;;4880348;29;20518;-69
2023/04/16 06:28:22;;;;;;;70.30;20.63;;;;;;;;;;4884109;29;20091;-69
2023/04/16 06:30:48;;;;;;;75.22;21.50;;;;;;;;;;4869701;29;20053;-70
2023/04/16 06:33:15;;;;;;;83.82;22.95;;;;;;;;;;4898964;29;20052;-70
2023/04/16 06:35:44;;;;;;;86.78;22.38;;;;;;;;;;4903780;29;20055;-69
2023/04/16 06:38:10;;;;;;;104.30;24.42;;;;;;;;;;4888367;29;20040;-70
2023/04/16 06:40:36;;;;;;;82.38;22.25;;;;;;;;;;4893882;29;20059;-69
2023/04/16 06:43:02;;;;;;;70.47;21.70;;;;;;;;;;4880005;29;20040;-69
2023/04/16 06:45:28;;;;;;;67.93;21.25;;;;;;;;;;4899735;29;20040;-69
2023/04/16 06:47:54;;;;;;;84.05;21.42;;;;;;;;;;4895882;29;20097;-70
2023/04/16 06:50:22;;;;;;;71.72;22.20;;;;;;;;;;4884728;29;20056;-76
2023/04/16 06:52:48;;;;;;;74.95;21.40;;;;;;;;;;4889971;29;20067;-70
2023/04/16 06:55:14;;;;;;;59.88;20.13;;;;;;;;;;4868262;29;20036;-80
2023/04/16 06:57:40;;;;;;;62.03;19.20;;;;;;;;;;4888767;29;20200;-73
2023/04/16 07:00:06;;;;;;;61.65;19.17;;;;;;;;;;4872564;29;20044;-69
2023/04/16 07:02:33;;;;;;;55.05;19.08;;;;;;;;;;4891778;29;20131;-77
2023/04/16 07:04:59;;;;;;;66.45;19.75;;;;;;;;;;4894606;29;20075;-72
2023/04/16 07:07:25;;;;;;;56.13;17.42;;;;;;;;;;4900269;29;20045;-72
2023/04/16 07:09:52;;;;;;;77.35;19.15;;;;;;;;;;4882580;29;20036;-71
2023/04/16 07:12:18;;;;;;;59.00;18.52;;;;;;;;;;4883232;29;20049;-71
2023/04/16 07:14:44;;;;;;;58.85;17.40;;;;;;;;;;4882485;29;20078;-72
2023/04/16 07:17:10;;;;;;;68.57;19.13;;;;;;;;;;4883229;29;20095;-71
2023/04/16 07:19:36;;;;;;;72.13;18.30;;;;;;;;;;4900068;29;20104;-71
2023/04/16 07:22:02;;;;;;;60.45;17.35;;;;;;;;;;4883221;29;20040;-72
2023/04/16 07:24:28;;;;;;;73.35;18.23;;;;;;;;;;4883186;29;20055;-72
2023/04/16 07:26:54;;;;;;;55.65;19.00;;;;;;;;;;4883144;29;20084;-72
2023/04/16 07:29:20;;;;;;;59.90;17.17;;;;;;;;;;4899845;29;20044;-72
2023/04/16 07:31:46;;;;;;;56.45;18.42;;;;;;;;;;4867501;29;20048;-72
2023/04/16 07:34:12;;;;;;;68.85;20.70;;;;;;;;;;4899674;29;20087;-72
2023/04/16 07:36:39;;;;;;;58.47;18.77;;;;;;;;;;4867510;29;20473;-72
2023/04/16 07:39:05;;;;;;;55.50;17.70;;;8.30;99.90;;;;;;4882809;29;20622;-72
2023/04/16 07:41:31;;;;;;;68.72;18.67;;;;;;;;;;4867462;29;20131;-72
2023/04/16 07:43:57;;;;;;;52.92;17.63;;;;;;;;;;4883132;29;20080;-72
2023/04/16 07:46:23;;;;;;;60.13;17.75;;;;;;;;;;4899820;29;20363;-72
2023/04/16 07:48:49;;;;;;;56.33;17.55;;;;;;;;;;4882695;29;20045;-72
2023/04/16 07:51:16;;;;;;;48.92;17.45;;;;;;;;;;4882587;29;20131;-72
2023/04/16 07:53:42;;;;;;;64.78;19.02;;;;;;;;;;4899292;29;20474;-72
2023/04/16 07:56:08;;;;;;;68.85;18.25;;;;;;;;;;4867359;29;20051;-72
2023/04/16 07:58:34;;;;;;;65.53;19.42;;;;;;;;;;4882710;29;20032;-72
2023/04/16 08:01:01;;;;;;;75.55;19.10;;;;;;;;;;4882427;29;20041;-72
2023/04/16 08:03:27;;;;;;;75.47;19.70;;;;;;;;;;4882127;29;20071;-72
2023/04/16 08:05:53;;;;;;;53.35;16.60;;;;;;;;;;4898997;29;20036;-72
2023/04/16 08:08:19;;;;;;;65.22;17.98;;;;;;;;;;4882529;29;20044;-72
2023/04/16 08:10:45;;;;;;;63.63;21.88;;;;;;;;;;4899216;29;20095;-72
2023/04/16 08:13:11;;;;;;;58.20;18.13;;;;;;;;;;4882369;29;20049;-73
2023/04/16 08:15:38;;;;;;;60.90;18.85;;;;;;;;;;4882167;29;20484;-71
2023/04/16 08:18:11;;;;;;;68.20;18.88;;;;;;;;;;4866704;29;20040;-71
2023/04/16 08:20:37;;;;;;;56.75;18.42;;;;;;;;;;4882135;29;20051;-71
2023/04/16 08:23:04;;;;;;;55.15;18.20;;;;;;;;;;4882145;29;20052;-70
2023/04/16 08:25:30;;;;;;;65.97;17.60;;;;;;;;;;4882121;29;20048;-72
2023/04/16 08:27:56;;;;;;;54.65;16.27;;;;;;;;;;4882271;29;20430;-72
2023/04/16 08:30:22;;;;;;;61.72;17.23;;;;;;;;;;4882386;29;20382;-71
2023/04/16 08:32:49;;;;;;;57.42;18.05;;;;;;;;;;4881976;29;20093;-72
2023/04/16 08:35:15;;;;;;;44.97;16.85;;;;;;;;;;4882159;29;20041;-72
2023/04/16 08:37:41;;;;;;;52.38;17.10;;;;;;;;;;4881677;29;20041;-72
2023/04/16 08:40:07;;;;;;;46.30;16.83;;;8.20;99.90;;;;;;4881885;29;20051;-72
2023/04/16 08:42:35;;;;;;;65.15;18.23;;;;;;;;;;4882279;29;20040;-72
2023/04/16 08:45:11;;;;;;;52.67;18.60;;;;;;;;;;4881791;29;20482;-72
2023/04/16 08:47:38;;;;;;;53.50;17.00;;;9.00;99.90;;;;;;4882065;29;20044;-72
2023/04/16 08:50:05;;;;;;;50.28;16.38;;;8.70;99.90;;;;;;4881741;29;20048;-71
2023/04/16 08:52:31;;;;;;;71.90;17.73;;;8.90;99.90;;;;;;4866445;29;20048;-71
2023/04/16 08:54:57;;;;;;;57.47;18.25;;;;;;;;;;4866118;29;20048;-71
2023/04/16 08:57:28;;;;;;;44.85;18.35;;;9.30;99.90;;;;;;4881914;29;20375;-71
2023/04/16 08:59:55;;;;;;;47.45;17.38;;;9.30;99.90;;;;;;4866274;29;20040;-70
2023/04/16 09:02:21;;;;;;;57.42;17.25;;;;;;;;;;4881072;29;20060;-71
2023/04/16 09:04:49;;;;;;;57.15;18.77;;;9.30;99.90;;;;;;4881804;29;20111;-70
2023/04/16 09:07:16;;;;;;;52.95;18.80;;;9.30;99.90;;;;;;4866290;29;20052;-71
2023/04/16 09:09:43;;;;;;;67.97;18.27;;;9.30;99.90;;;;;;4898392;29;20127;-72
2023/04/16 09:12:09;;;;;;;58.65;17.85;;;;;;;;;;4881326;29;20505;-71
2023/04/16 09:14:37;;;;;;;61.28;20.27;;;;;;;;;;4898387;29;20095;-71
2023/04/16 09:17:03;;;;;;;61.75;18.92;;;;;;;;;;4881120;29;20443;-72
2023/04/16 09:19:29;;;;;;;69.85;19.25;;;;;;;;;;4881412;29;20049;-72
2023/04/16 09:21:56;;;;;;;55.35;19.63;;;;;;;;;;4881486;29;20124;-72
2023/04/16 09:24:22;;;;;;;52.83;20.10;;;;;;;;;;4866166;29;20052;-72
2023/04/16 09:26:51;;;;;;;53.72;20.10;;;9.50;99.90;;;;;;4898353;29;20049;-71
2023/04/16 09:29:37;;;;;;;55.35;18.88;;;;;;;;;;4881288;29;20053;-71
2023/04/16 09:32:07;;;;;;;57.67;18.75;;;9.50;99.90;;;;;;4897759;29;20049;-71
2023/04/16 09:34:34;;;;;;;53.20;17.88;;;;;;;;;;4881292;29;20048;-71
2023/04/16 09:37:18;;;;;;;55.70;18.92;;;;;;;;;;4881229;29;20037;-69
2023/04/16 09:39:45;;;;;;;54.28;16.50;;;;;;;;;;4865893;29;20096;-69
2023/04/16 09:42:11;;;;;;;48.78;18.27;;;;;;;;;;4881097;29;20132;-69
2023/04/16 09:44:38;;;;;;;48.20;18.02;;;;;;;;;;4881235;29;20185;-68
2023/04/16 09:47:08;;;;;;;66.80;18.42;;;;;;;;;;4865771;29;20557;-70
2023/04/16 09:49:35;;;;;;;52.70;18.75;;;;;;;;;;4881344;29;20498;-71
2023/04/16 09:52:01;;;;;;;52.90;18.50;;;;;;;;;;4865541;29;20060;-69
2023/04/16 09:54:27;;;;;;;53.40;19.73;;;;;;;;;;4881056;29;20045;-69
2023/04/16 09:56:56;;;;;;;49.65;19.65;;;;;;;;;;4865458;29;20404;-68
2023/04/16 09:59:23;;;;;;;52.53;18.63;;;9.70;99.90;;;;;;4880992;29;20080;-68
2023/04/16 10:01:49;;;;;;;52.13;18.70;;;9.80;99.90;;;;;;4897777;29;20108;-69
2023/04/16 10:04:16;;;;;;;64.20;18.95;;;;;;;;;;4881123;29;20556;-69
2023/04/16 10:06:42;;;;;;;57.33;19.88;;;;;;;;;;4881202;29;20382;-69
2023/04/16 10:09:09;;;;;;;60.42;19.35;;;;;;;;;;4881290;29;20092;-69
2023/04/16 10:11:35;;;;;;;64.82;19.20;;;;;;;;;;4881111;29;20052;-69
2023/04/16 10:14:01;;;;;;;57.15;18.65;;;;;;;;;;4897686;29;20485;-69
2023/04/16 10:16:29;;;;;;;52.90;17.92;;;9.80;99.90;;;;;;4881208;29;20048;-69
2023/04/16 10:18:56;;;;;;;65.22;18.23;;;;;;;;;;4897673;29;20056;-69
2023/04/16 10:21:22;;;;;;;54.38;19.00;;;;;;;;;;4880836;29;20049;-69
2023/04/16 10:23:49;;;;;;;55.85;19.58;;;;;;;;;;4881118;29;20075;-69
2023/04/16 10:26:15;;;;;;;50.08;18.85;;;;;;;;;;4897788;29;20079;-70
2023/04/16 10:28:41;;;;;;;53.45;19.17;;;;;;;;;;4881746;29;20072;-69
2023/04/16 10:31:08;;;;;;;56.67;20.30;;;10.20;99.90;;;;;;4884062;29;20083;-69
2023/04/16 10:33:38;;;;;;;64.72;20.30;;;10.00;99.90;;;;;;4883857;29;20140;-70
2023/04/16 10:36:10;;;;;;;56.70;18.70;;;9.90;99.90;;;;;;4883931;29;20080;-70
2023/04/16 10:38:41;;;;;;;48.85;18.25;;;;;;;;;;4883872;29;20051;-69
2023/04/16 10:41:08;;;;;;;49.78;20.83;;;;;;;;;;4883955;29;20045;-69
2023/04/16 10:43:44;;;;;;;50.80;20.00;;;;;;;;;;4883863;29;20100;-69
2023/04/16 10:46:17;;;;;;;47.25;20.60;;;;;;;;;;4883825;29;20119;-70
2023/04/16 10:48:43;;;;;;;48.22;20.60;;;;;;;;;;4884136;29;20190;-70
2023/04/16 10:51:23;;;;;;;40.75;19.08;;;10.20;99.90;;;;;;4883808;29;20053;-69
2023/04/16 10:53:49;;;;;;;50.42;21.25;;;;;;;;;;4900660;29;20405;-70
2023/04/16 10:56:22;;;;;;;46.53;19.67;;;10.20;99.90;;;;;;4883661;29;20060;-69
2023/04/16 10:58:48;;;;;;;46.78;20.25;;;;;;;;;;4883687;29;20092;-69
2023/04/16 11:01:15;;;;;;;43.22;18.73;;;;;;;;;;4868815;29;20048;-69
2023/04/16 11:03:42;;;;;;;51.55;18.75;;;;;;;;;;4883570;29;20529;-70
2023/04/16 11:06:16;;;;;;;41.85;17.02;;;10.20;99.90;;;;;;4884955;29;20056;-69
2023/04/16 11:08:46;;;;;;;40.00;17.92;;;10.00;99.90;;;;;;4884476;29;20136;-68
2023/04/16 11:11:12;;;;;;;45.40;17.55;;;;;;;;;;4868637;29;20101;-68
2023/04/16 11:13:42;;;;;;;44.67;19.58;;;;;;;;;;4883698;29;20131;-69
2023/04/16 11:16:08;;;;;;;49.28;20.35;;;;;;;;;;4883779;29;20127;-69
2023/04/16 11:18:35;;;;;;;52.95;17.55;;;10.00;99.90;;;;;;4883478;29;20055;-69
2023/04/16 11:21:01;;;;;;;48.78;17.42;;;;;;;;;;4883394;29;20371;-69
2023/04/16 11:23:27;;;;;;;45.88;17.85;;;;;;;;;;4867683;29;20053;-69
2023/04/16 11:25:56;;;;;;;41.15;18.85;;;;;;;;;;4883304;29;20104;-69
2023/04/16 11:28:32;;;;;;;52.83;20.33;;;10.10;99.90;;;;;;4867722;29;20059;-68
2023/04/16 11:30:59;;;;;;;40.42;18.55;;;;;;;;;;4883338;29;20080;-68
2023/04/16 11:33:25;;;;;;;47.95;18.80;;;;;;;;;;4883348;29;20394;-69
2023/04/16 11:36:00;;;;;;;50.28;17.13;;;10.30;99.90;;;;;;4883231;29;20057;-68
2023/04/16 11:38:33;;;;;;;55.00;19.50;;;;;;;;;;4882841;29;20367;-69
2023/04/16 11:41:00;;;;;;;51.42;19.00;;;;;;;;;;4882619;29;20076;-68
2023/04/16 11:43:25;;;;;;;57.45;20.05;;;10.90;99.90;;;;;;4867289;29;20100;-68
2023/04/16 11:45:58;;;;;;;54.80;18.95;;;;;;;;;;4883064;29;20044;-68
2023/04/16 11:48:24;;;;;;;47.15;20.27;;;;;;;;;;4882615;29;20127;-69
2023/04/16 11:50:57;;;;;;;40.22;18.75;;;10.30;99.90;;;;;;4867349;29;20107;-69
2023/04/16 11:53:23;;;;;;;41.35;17.27;;;;;;;;;;4882947;29;20044;-69
2023/04/16 11:55:49;;;;;;;48.58;19.10;;;;;;;;;;4882788;29;20056;-69
2023/04/16 11:58:16;;;;;;;37.58;17.80;;;;;;;;;;4867153;29;20040;-69
2023/04/16 12:00:42;;;;;;;40.63;19.08;;;;;;;;;;4899369;29;20048;-69
2023/04/16 12:03:08;;;;;;;39.50;17.95;;;;;;;;;;4882454;29;20057;-69
2023/04/16 12:05:37;;;;;;;44.58;17.73;;;10.50;99.90;;;;;;4882493;29;20052;-69
2023/04/16 12:08:08;;;;;;;44.95;18.77;;;10.60;99.90;;;;;;4882459;29;20104;-69
2023/04/16 12:10:52;;;;;;;40.67;18.25;;;10.40;99.90;;;;;;4899269;29;20485;-69
2023/04/16 12:13:18;;;;;;;41.15;18.35;;;;;;;;;;4882424;29;20109;-69
2023/04/16 12:15:49;;;;;;;41.42;18.58;;;;;;;;;;4866980;29;20048;-69
2023/04/16 12:18:16;;;;;;;43.63;19.48;;;10.50;99.90;;;;;;4866835;29;20553;-69
2023/04/16 12:20:43;;;;;;;48.08;18.05;;;;;;;;;;4899255;29;20044;-69
2023/04/16 12:23:10;;;;;;;37.38;18.45;;;10.60;99.90;;;;;;4882171;29;20044;-69
2023/04/16 12:25:36;;;;;;;49.35;19.15;;;;;;;;;;4899065;29;20052;-69
2023/04/16 12:28:02;;;;;;;40.38;18.63;;;;;;;;;;4882092;29;20045;-69
2023/04/16 12:30:29;;;;;;;39.28;18.63;;;;;;;;;;4882146;29;20049;-69
2023/04/16 12:33:15;;;;;;;47.17;17.60;;;10.80;99.90;;;;;;4866461;29;20052;-69
2023/04/16 12:35:45;;;;;;;42.25;17.95;;;;;;;;;;4882240;29;20059;-69
2023/04/16 12:38:12;;;;;;;37.90;19.25;;;;;;;;;;4881965;29;20080;-69
2023/04/16 12:40:39;;;;;;;39.25;18.40;;;;;;;;;;4881649;29;20489;-69
2023/04/16 12:43:05;;;;;;;47.40;20.02;;;;;;;;;;4898777;29;20448;-69
2023/04/16 12:45:31;;;;;;;41.08;18.35;;;;;;;;;;4882509;29;20052;-70
2023/04/16 12:47:57;;;;;;;42.05;20.42;;;;;;;;;;4881760;29;20493;-70
2023/04/16 12:50:23;;;;;;;48.33;19.05;;;;;;;;;;4881748;29;20493;-70
2023/04/16 12:52:49;;;;;;;31.25;17.73;;;;;;;;;;4880957;29;20045;-71
2023/04/16 12:55:15;;;;;;;37.33;18.27;;;;;;;;;;4881617;29;20041;-72
2023/04/16 12:57:41;;;;;;;47.58;21.55;;;;;;;;;;4866106;29;20045;-72
2023/04/16 13:00:11;;;;;;;45.25;20.00;;;;;;;;;;4898338;29;20564;-72
2023/04/16 13:02:37;;;;;;;44.75;18.88;;;;;;;;;;4881346;29;20166;-72
2023/04/16 13:05:03;;;;;;;39.78;18.73;;;;;;;;;;4881518;29;20048;-72
2023/04/16 13:07:31;;;;;;;45.78;21.27;;;;;;;;;;4881342;29;20100;-72
2023/04/16 13:09:57;;;;;;;42.38;18.55;;;;;;;;;;4881269;29;20502;-70
2023/04/16 13:12:23;;;;;;;36.75;19.92;;;;;;;;;;4866004;29;20048;-69
2023/04/16 13:14:49;;;;;;;42.92;19.35;;;;;;;;;;4881394;29;20053;-70
2023/04/16 13:17:15;;;;;;;49.92;20.38;;;;;;;;;;4866268;29;20116;-70
2023/04/16 13:19:41;;;;;;;48.30;20.45;;;;;;;;;;4881623;29;20041;-70
2023/04/16 13:22:07;;;;;;;35.90;18.67;;;;;;;;;;4881714;29;20136;-69
2023/04/16 13:24:34;;;;;;;35.58;18.50;;;;;;;;;;4881250;29;20715;-69
2023/04/16 13:27:00;;;;;;;36.10;20.50;;;;;;;;;;4881580;29;20100;-69
2023/04/16 13:29:26;;;;;;;42.85;20.02;;;;;;;;;;4898256;29;20049;-69
2023/04/16 13:31:52;;;;;;;39.33;19.05;;;;;;;;;;4881239;29;20370;-69
2023/04/16 13:34:18;;;;;;;38.00;19.33;;;;;;;;;;4881450;29;20044;-70
2023/04/16 13:36:44;;;;;;;37.80;18.00;;;;;;;;;;4865863;29;20041;-69
2023/04/16 13:39:10;;;;;;;41.78;18.55;;;;;;;;;;4866163;29;20132;-69
2023/04/16 13:41:39;;;;;;;42.25;18.65;;;11.90;99.90;;;;;;4881220;29;20096;-69
2023/04/16 13:44:05;;;;;;;40.22;19.05;;;;;;;;;;4881302;29;20151;-69
2023/04/16 13:46:32;;;;;;;41.15;18.45;;;;;;;;;;4881843;29;20044;-69
2023/04/16 13:48:58;;;;;;;40.97;18.48;;;;;;;;;;4881584;29;20107;-70
2023/04/16 13:51:24;;;;;;;46.95;18.88;;;;;;;;;;4881249;29;20489;-69
2023/04/16 13:53:50;;;;;;;41.95;21.30;;;;;;;;;;4850289;29;20051;-69
2023/04/16 13:56:16;;;;;;;40.88;19.92;;;;;;;;;;4897769;29;20505;-70
2023/04/16 13:58:42;;;;;;;39.55;20.83;;;;;;;;;;4865774;29;20080;-69